Aeroporto :
LOGIN :

Iscrizione | Disclaimer

   EN    FR    IT 

 










Sommario :    VFR   VFR Marginale   IFR   IFR Intensivo   IFR Molto Intensivo
Visibilità : 
Base nubi : 
>= 8 km
>= 3000ft
5 / 8 km
1000 / 3000 ft
1500m / 5 km
500 / 1000 ft
800 / 1500m
200 / 500 ft
< 800m
< 200 ft
Simboli :   Temporali  Nebbia  Neve Forte  Precipitazioni Forti  Vento > 20 kt
SIGMETs :   Varie  Temporali  Ghiacco  Turbolenza  Onda orograficha  Ceneri Vulcaniche







- Altitudine del aeroporto : 17 ft
- Codice IATA : GRQ


EHGG - Groningen Eelde

ULTIMO METAR :
  • 180525Z AUTO VRB01KT 5000 BR NSC 16/15 Q1015 BECMG CAVOK

METARs OBSOLETI :
  • 180455Z AUTO 33001KT 4000 BR NSC 15/15 Q1015 BECMG CAVOK
  • 180425Z AUTO VRB02KT 4500 BR NSC 14/14 Q1015 BECMG CAVOK
  • 180355Z AUTO 09002KT 3700 BR NSC 13/13 Q1015
  • 180325Z AUTO 12001KT 8000 NSC 12/12 Q1015
  • 180255Z AUTO 26001KT 7000 NSC 12/12 Q1015

TAF TAF EHGG
Valido dal 18 a 06 ore il 19 a 12 ore UTC


180456Z 1806/1912 33005KT CAVOK
PROB30
TEMPO 1902/1905 6000 MIFG
Nessun NOTAM noto per questo aeroporto.



MetMap, La meteo Aeronautica in un colpo d'occhio ! - Copyright ORBIFLY Dicembre 2007 - Disclaimer

ORBIFLY MET'MAP TEAM :

Programmazione e sviluppo : Alexandra Zaïnal
Concezione e sviluppo : Baudouin d'Aumeries
Co-Programmazione e sviluppo : Marc-Olivier Méhu
Supporto tecnico e logistico : Manuel Goepfert
Aiuto per la traduzione : Arnaldo La Scala

Contatto : metmap@orbifly.com




FONTI E CREDITI :

   NOAA